Old Bethpage, New York
Current Conditions -  °F | °C
As of 4:53 PM on Monday 22 Dec 2014 (Local Time) from KFRG Reporting Station
Overcast Overcast  
Wind Chill: 40°   Ceiling: 4100
Heat Index: 46°   Visibility: 10mi
Dew Point: 40°   Wind: 13mph
Humidity: 79%   Direction: 90°E
Pressure: 30.22"   Gusts: NA
Location:  40.76°N, 73.45°W
Report Text: KFRG 222153Z 09011KT 10SM OVC041 08/04 A3022 RMK AO2 SLP233 T00780044
Loading
Personal Weather Stations






























Interactive Weather Map New forecast layout! Learn more

10-Day Weather Forecast

Advertisements
Track Severe Weather on mobile